Time;durP1;ratioP1;P1;durP2;ratioP2;P2;SDS_P1;SDS_P2;PMS_P1;PMS_P2;Temp;Humidity;BMP_temperature;BMP_pressure;BME280_temperature;BME280_humidity;BME280_pressure;Samples;Min_cycle;Max_cycle;Signal;HPM_P1;HPM_P2
2021/04/06 00:01:42;;;;;;;6.60;2.60;;;6.90;52.60;;;;;;5027545;28;20498;-40
2021/04/06 00:04:11;;;;;;;4.67;2.93;;;6.90;52.80;;;;;;5026756;28;20464;-40
2021/04/06 00:06:40;;;;;;;4.90;2.43;;;6.80;52.70;;;;;;5020385;28;20695;-40
2021/04/06 00:09:12;;;;;;;6.33;3.07;;;6.80;52.60;;;;;;5027010;28;20961;-40
2021/04/06 00:11:41;;;;;;;3.20;2.70;;;6.80;52.20;;;;;;5020866;28;20532;-40
2021/04/06 00:14:08;;;;;;;2.13;1.93;;;6.70;52.30;;;;;;5032662;28;21012;-40
2021/04/06 00:16:35;;;;;;;5.10;1.90;;;6.70;52.50;;;;;;5023387;28;20436;-40
2021/04/06 00:19:02;;;;;;;4.30;2.17;;;6.70;52.70;;;;;;5027128;28;20803;-40
2021/04/06 00:21:28;;;;;;;2.40;1.90;;;6.70;52.60;;;;;;5027507;28;20487;-40
2021/04/06 00:23:55;;;;;;;3.00;1.87;;;6.70;52.70;;;;;;5028785;28;20498;-40
2021/04/06 00:26:21;;;;;;;3.77;2.17;;;6.70;52.60;;;;;;5026297;28;20997;-40
2021/04/06 00:28:47;;;;;;;2.87;1.87;;;6.70;52.90;;;;;;5031820;28;20432;-40
2021/04/06 00:31:15;;;;;;;3.60;2.20;;;6.70;53.10;;;;;;5025726;28;20201;-40
2021/04/06 00:33:46;;;;;;;3.00;2.10;;;6.60;53.20;;;;;;5024990;28;20873;-39
2021/04/06 00:36:14;;;;;;;3.20;1.80;;;6.60;53.20;;;;;;5028757;28;20444;-40
2021/04/06 00:38:42;;;;;;;2.30;1.70;;;6.60;52.90;;;;;;5030623;28;20535;-40
2021/04/06 00:41:12;;;;;;;3.57;1.30;;;6.60;52.90;;;;;;5029453;28;20529;-40
2021/04/06 00:43:41;;;;;;;3.50;1.47;;;6.50;52.30;;;;;;5025748;28;20424;-40
2021/04/06 00:46:12;;;;;;;5.80;1.70;;;6.50;51.70;;;;;;5024790;28;20845;-40
2021/04/06 00:48:43;;;;;;;3.03;1.40;;;6.50;51.30;;;;;;5031544;28;20462;-40
2021/04/06 00:51:19;;;;;;;1.10;0.97;;;6.60;50.90;;;;;;5030184;28;20789;-40
2021/04/06 00:54:06;;;;;;;1.50;1.10;;;6.50;49.80;;;;;;5018761;28;20456;-40
2021/04/06 00:56:34;;;;;;;3.23;1.00;;;6.40;49.50;;;;;;5030605;28;20452;-40
2021/04/06 00:59:09;;;;;;;3.27;1.13;;;6.50;49.50;;;;;;5023975;28;20559;-40
2021/04/06 01:01:42;;;;;;;4.30;1.10;;;6.50;49.20;;;;;;5025389;28;20486;-40
2021/04/06 01:04:10;;;;;;;1.37;1.00;;;6.60;49.20;;;;;;5030213;28;20482;-39
2021/04/06 01:07:12;;;;;;;6.50;1.30;;;6.60;48.90;;;;;;5027937;28;20447;-40
2021/04/06 01:09:46;;;;;;;2.00;1.10;;;6.60;49.00;;;;;;5025358;28;20455;-39
2021/04/06 01:12:18;;;;;;;3.77;1.57;;;6.60;49.00;;;;;;5028410;28;20519;-40
2021/04/06 01:14:46;;;;;;;2.20;1.10;;;6.70;49.10;;;;;;5029640;28;20815;-40
2021/04/06 01:17:17;;;;;;;3.17;1.00;;;6.70;49.30;;;;;;5030270;28;20439;-39
2021/04/06 01:19:43;;;;;;;8.17;1.70;;;6.70;49.90;;;;;;5022477;28;20842;-40
2021/04/06 01:22:11;;;;;;;3.03;1.07;;;6.70;49.90;;;;;;5024979;28;20436;-39
2021/04/06 01:24:38;;;;;;;3.93;1.37;;;6.70;50.10;;;;;;5030502;28;20436;-40
2021/04/06 01:27:08;;;;;;;1.90;1.03;;;6.70;50.30;;;;;;5023923;28;20523;-39
2021/04/06 01:29:34;;;;;;;2.77;1.13;;;6.70;49.80;;;;;;5021378;28;20455;-39
2021/04/06 01:32:00;;;;;;;4.43;1.27;;;6.70;50.10;;;;;;5029868;28;20436;-40
2021/04/06 01:34:27;;;;;;;2.30;1.23;;;6.60;50.10;;;;;;5030699;28;20480;-39
2021/04/06 01:36:54;;;;;;;2.93;1.43;;;6.60;50.50;;;;;;5023733;28;20522;-39
2021/04/06 01:39:25;;;;;;;3.17;1.47;;;6.60;50.40;;;;;;5024837;28;20424;-40
2021/04/06 01:41:56;;;;;;;3.20;1.43;;;6.60;50.30;;;;;;5027939;28;20455;-39
2021/04/06 01:44:22;;;;;;;1.60;1.50;;;6.60;50.00;;;;;;5028109;28;20796;-39
2021/04/06 01:46:49;;;;;;;3.90;1.10;;;6.60;49.80;;;;;;5022780;28;20440;-40
2021/04/06 01:49:17;;;;;;;2.50;1.50;;;6.30;49.20;;;;;;5024471;28;20657;-39
2021/04/06 01:51:43;;;;;;;1.30;1.20;;;6.30;49.80;;;;;;5024469;28;20533;-39
2021/04/06 01:54:11;;;;;;;1.30;1.20;;;6.30;50.40;;;;;;5032568;28;20431;-39
2021/04/06 01:56:44;;;;;;;2.73;1.30;;;6.30;50.20;;;;;;5027342;28;20943;-40
2021/04/06 02:01:35;;;;;;;3.70;1.50;;;6.30;49.40;;;;;;5026795;28;20496;-39
2021/04/06 02:04:05;;;;;;;3.20;1.10;;;6.20;49.10;;;;;;5028464;28;20224;-40
2021/04/06 02:06:37;;;;;;;4.00;1.47;;;6.30;49.20;;;;;;5028402;28;20452;-40
2021/04/06 02:09:08;;;;;;;2.40;1.37;;;6.20;49.10;;;;;;5026078;28;20471;-39
2021/04/06 02:11:36;;;;;;;6.20;1.87;;;6.30;49.00;;;;;;5026284;28;20497;-39
2021/04/06 02:14:10;;;;;;;4.20;1.70;;;6.10;49.00;;;;;;5026168;28;20452;-39
2021/04/06 02:16:51;;;;;;;3.80;1.77;;;6.10;49.10;;;;;;5024886;28;20452;-40
2021/04/06 02:19:23;;;;;;;3.27;1.70;;;6.10;49.30;;;;;;5025352;28;20444;-40
2021/04/06 02:21:51;;;;;;;1.33;1.10;;;6.00;49.10;;;;;;5029637;28;20444;-40
2021/04/06 02:24:26;;;;;;;4.73;1.33;;;5.90;49.30;;;;;;5023437;28;20441;-40
2021/04/06 02:27:00;;;;;;;2.53;1.77;;;5.80;49.50;;;;;;5025511;28;20478;-40
2021/04/06 02:29:25;;;;;;;2.30;1.83;;;5.70;49.50;;;;;;5025293;28;20440;-40
2021/04/06 02:31:51;;;;;;;4.30;1.40;;;5.70;49.30;;;;;;5027261;28;20444;-40
2021/04/06 02:34:17;;;;;;;5.20;2.80;;;5.60;49.60;;;;;;5021318;28;20571;-40
2021/04/06 02:36:46;;;;;;;3.63;1.80;;;5.60;49.50;;;;;;5026380;28;20229;-40
2021/04/06 02:39:12;;;;;;;1.70;1.60;;;5.60;49.50;;;;;;5026980;28;20193;-40
2021/04/06 02:41:38;;;;;;;1.90;1.40;;;5.50;49.40;;;;;;5025019;28;20488;-40
2021/04/06 02:44:04;;;;;;;3.80;2.20;;;5.50;49.70;;;;;;5029646;28;20454;-40
2021/04/06 02:46:30;;;;;;;1.83;1.50;;;5.60;49.70;;;;;;5025386;28;20193;-40
2021/04/06 02:48:59;;;;;;;3.83;1.87;;;5.80;49.60;;;;;;5024099;28;20201;-40
2021/04/06 02:51:25;;;;;;;3.67;1.57;;;5.50;49.50;;;;;;5026751;28;20443;-40
2021/04/06 02:53:53;;;;;;;3.43;1.60;;;5.50;49.60;;;;;;5025952;28;20440;-40
2021/04/06 02:56:37;;;;;;;1.83;1.40;;;5.50;49.40;;;;;;5024863;28;20902;-40
2021/04/06 02:59:21;;;;;;;2.10;1.50;;;5.50;49.60;;;;;;5028550;28;20440;-40
2021/04/06 03:01:51;;;;;;;2.97;2.07;;;5.50;49.40;;;;;;5023411;28;20459;-40
2021/04/06 03:04:20;;;;;;;6.67;2.27;;;5.30;49.70;;;;;;5029038;28;20574;-40
2021/04/06 03:06:46;;;;;;;3.80;1.57;;;5.30;50.00;;;;;;5025522;28;20443;-40
2021/04/06 03:09:13;;;;;;;7.07;2.57;;;5.30;50.10;;;;;;5019327;28;20535;-40
2021/04/06 03:11:46;;;;;;;6.53;1.90;;;5.10;49.90;;;;;;5026565;28;20498;-40
2021/04/06 03:14:12;;;;;;;1.63;1.47;;;5.20;50.30;;;;;;5025415;28;20444;-40
2021/04/06 03:16:39;;;;;;;2.60;1.60;;;5.20;50.60;;;;;;5020604;28;20436;-40
2021/04/06 03:19:06;;;;;;;3.03;1.47;;;5.30;49.80;;;;;;5023686;28;20444;-40
2021/04/06 03:21:33;;;;;;;4.10;1.37;;;5.50;49.80;;;;;;5028337;28;20498;-40
2021/04/06 03:24:00;;;;;;;4.70;1.60;;;5.50;50.00;;;;;;5026521;28;20523;-40
2021/04/06 03:26:27;;;;;;;2.23;1.60;;;5.50;49.90;;;;;;5026063;28;20439;-40
2021/04/06 03:28:57;;;;;;;3.87;1.53;;;5.20;49.40;;;;;;5027460;28;20440;-40
2021/04/06 03:31:26;;;;;;;3.47;2.17;;;5.10;49.60;;;;;;5020816;28;20471;-40
2021/04/06 03:33:52;;;;;;;2.33;1.50;;;5.30;49.90;;;;;;5016890;28;20954;-40
2021/04/06 03:36:22;;;;;;;2.50;1.50;;;5.40;49.60;;;;;;5025968;28;21381;-40
2021/04/06 03:38:50;;;;;;;6.33;1.90;;;5.30;49.50;;;;;;5023376;28;20676;-40
2021/04/06 03:41:18;;;;;;;4.00;1.17;;;5.40;49.60;;;;;;5020996;28;20549;-40
2021/04/06 03:43:44;;;;;;;1.90;1.37;;;5.40;49.30;;;;;;5026695;28;20441;-40
2021/04/06 03:46:10;;;;;;;1.17;1.07;;;5.30;49.00;;;;;;5027416;28;20444;-40
2021/04/06 03:48:39;;;;;;;3.37;1.70;;;5.30;49.30;;;;;;5013567;28;20514;-40
2021/04/06 03:51:23;;;;;;;2.30;1.30;;;5.40;49.40;;;;;;5028112;28;20436;-40
2021/04/06 03:53:50;;;;;;;3.03;1.40;;;5.50;49.30;;;;;;5025453;28;20467;-40
2021/04/06 03:56:16;;;;;;;1.70;1.27;;;5.30;49.20;;;;;;5023282;28;20538;-40
2021/04/06 03:58:55;;;;;;;2.83;1.27;;;5.40;49.50;;;;;;5025929;28;20443;-40
2021/04/06 04:01:20;;;;;;;6.43;1.60;;;5.50;49.30;;;;;;5021558;28;20660;-40
2021/04/06 04:03:46;;;;;;;2.67;1.60;;;5.50;49.30;;;;;;5028922;28;20483;-40
2021/04/06 04:06:25;;;;;;;2.50;1.53;;;5.50;49.30;;;;;;5027785;28;20189;-40
2021/04/06 04:08:55;;;;;;;2.80;2.00;;;5.40;49.30;;;;;;5014331;28;20595;-40
2021/04/06 04:11:21;;;;;;;2.43;1.50;;;5.40;49.30;;;;;;5018541;28;20459;-40
2021/04/06 04:13:47;;;;;;;3.70;1.57;;;5.20;50.00;;;;;;5026110;28;20441;-40
2021/04/06 04:16:14;;;;;;;5.23;1.90;;;5.30;50.10;;;;;;5025331;28;20998;-40
2021/04/06 04:18:39;;;;;;;3.40;1.33;;;5.50;49.80;;;;;;5028341;28;20197;-40
2021/04/06 04:21:05;;;;;;;5.73;1.63;;;5.30;49.40;;;;;;5025445;28;20490;-40
2021/04/06 04:23:31;;;;;;;4.90;2.33;;;5.30;49.50;;;;;;5023789;28;20197;-40
2021/04/06 04:25:57;;;;;;;2.83;1.50;;;5.50;49.70;;;;;;5026848;28;20455;-40
2021/04/06 04:28:23;;;;;;;2.80;1.30;;;5.60;49.60;;;;;;5026031;28;20884;-40
2021/04/06 04:30:51;;;;;;;8.00;1.50;;;5.80;49.30;;;;;;5028176;28;20190;-40
2021/04/06 04:33:17;;;;;;;4.33;1.70;;;5.90;48.70;;;;;;5022550;28;20446;-40
2021/04/06 04:35:43;;;;;;;4.93;1.53;;;5.80;48.90;;;;;;5025084;28;20471;-40
2021/04/06 04:38:09;;;;;;;5.27;2.10;;;5.50;49.10;;;;;;5026863;28;20295;-40
2021/04/06 04:40:38;;;;;;;3.70;1.90;;;5.20;49.50;;;;;;5021035;28;20514;-40
2021/04/06 04:43:04;;;;;;;6.40;1.70;;;5.10;49.80;;;;;;5020242;28;20531;-40
2021/04/06 04:45:30;;;;;;;2.93;1.90;;;5.20;49.70;;;;;;5028843;28;20523;-39
2021/04/06 04:47:55;;;;;;;5.43;1.77;;;5.30;49.70;;;;;;5027587;28;20657;-40
2021/04/06 04:50:22;;;;;;;3.30;1.90;;;5.10;49.60;;;;;;5024497;28;20571;-40
2021/04/06 04:52:49;;;;;;;2.27;1.60;;;5.10;50.30;;;;;;5025298;28;20219;-40
2021/04/06 04:55:17;;;;;;;6.30;1.97;;;5.10;50.40;;;;;;5027236;28;20447;-40
2021/04/06 04:57:43;;;;;;;3.00;1.90;;;5.20;50.10;;;;;;5025893;28;20444;-40
2021/04/06 05:00:10;;;;;;;4.03;2.00;;;5.40;50.30;;;;;;5020352;28;21039;-40
2021/04/06 05:02:36;;;;;;;6.53;2.23;;;5.60;50.10;;;;;;5030290;28;20463;-40
2021/04/06 05:05:02;;;;;;;2.17;1.90;;;5.80;49.80;;;;;;5027120;28;20444;-40
2021/04/06 05:07:28;;;;;;;4.17;2.33;;;5.90;49.40;;;;;;5027587;28;20472;-40
2021/04/06 05:09:53;;;;;;;1.93;1.80;;;5.90;49.60;;;;;;5029687;28;20873;-40
2021/04/06 05:12:19;;;;;;;6.27;1.77;;;6.00;49.80;;;;;;5030128;28;20197;-40
2021/04/06 05:14:46;;;;;;;2.50;2.20;;;6.10;49.60;;;;;;5023258;28;20197;-40
2021/04/06 05:17:16;;;;;;;7.50;3.13;;;6.20;49.10;;;;;;5021232;28;20197;-40
2021/04/06 05:19:42;;;;;;;13.60;4.17;;;6.10;49.10;;;;;;5025960;28;20468;-39
2021/04/06 05:22:07;;;;;;;4.87;2.60;;;6.10;50.50;;;;;;5023459;28;20923;-39
2021/04/06 05:24:33;;;;;;;4.50;2.20;;;6.10;50.80;;;;;;5029833;28;20443;-39
2021/04/06 05:26:59;;;;;;;6.10;2.20;;;6.30;50.60;;;;;;5029983;28;20278;-39
2021/04/06 05:29:24;;;;;;;8.83;3.00;;;6.30;49.50;;;;;;5024589;28;20445;-39
2021/04/06 05:31:50;;;;;;;5.00;2.33;;;6.30;49.00;;;;;;5026529;28;20201;-39
2021/04/06 05:34:16;;;;;;;3.80;2.00;;;6.40;49.00;;;;;;5026191;28;20192;-39
2021/04/06 05:36:41;;;;;;;5.67;2.53;;;6.50;48.70;;;;;;5020542;28;20677;-39
2021/04/06 05:39:07;;;;;;;4.33;2.10;;;6.50;48.50;;;;;;5032502;28;20247;-39
2021/04/06 05:41:34;;;;;;;3.97;2.40;;;6.30;48.20;;;;;;5028104;28;20803;-39
2021/04/06 05:44:04;;;;;;;3.87;1.90;;;6.30;48.60;;;;;;5029850;28;20209;-39
2021/04/06 05:46:32;;;;;;;8.90;2.20;;;6.30;48.40;;;;;;5031416;28;20467;-39
2021/04/06 05:49:09;;;;;;;5.80;2.90;;;5.90;49.00;;;;;;5026678;28;20472;-39
2021/04/06 05:51:39;;;;;;;6.70;2.33;;;5.90;49.80;;;;;;5022654;28;20443;-39
2021/04/06 05:54:06;;;;;;;5.93;2.40;;;5.90;49.60;;;;;;5022526;28;20474;-39
2021/04/06 05:56:33;;;;;;;3.03;1.87;;;5.80;49.40;;;;;;5028555;28;20440;-39
2021/04/06 05:58:58;;;;;;;4.20;2.47;;;5.70;49.30;;;;;;5026026;28;20439;-39
2021/04/06 06:01:28;;;;;;;5.70;2.30;;;5.70;49.80;;;;;;5030420;28;20494;-39
2021/04/06 06:03:54;;;;;;;3.10;2.00;;;5.90;49.90;;;;;;5030764;28;20236;-39
2021/04/06 06:06:22;;;;;;;6.03;2.80;;;5.90;49.60;;;;;;5028733;28;20523;-39
2021/04/06 06:08:51;;;;;;;5.20;2.50;;;5.70;49.60;;;;;;5032186;28;20438;-39
2021/04/06 06:11:17;;;;;;;3.10;2.80;;;5.90;50.00;;;;;;5029721;28;20428;-39
2021/04/06 06:13:43;;;;;;;6.37;2.00;;;6.20;49.50;;;;;;5025326;28;20436;-39
2021/04/06 06:16:26;;;;;;;3.90;2.03;;;6.20;49.20;;;;;;5023646;28;20208;-39
2021/04/06 06:19:00;;;;;;;3.70;1.90;;;6.40;48.90;;;;;;5030748;28;20205;-39
2021/04/06 06:21:38;;;;;;;7.23;2.40;;;6.60;48.90;;;;;;5022777;28;20506;-39
2021/04/06 06:24:05;;;;;;;3.80;2.10;;;6.80;48.90;;;;;;5028957;28;20440;-39
2021/04/06 06:26:31;;;;;;;5.33;1.97;;;6.90;47.90;;;;;;5029030;28;20515;-39
2021/04/06 06:29:16;;;;;;;6.10;2.83;;;7.00;47.50;;;;;;5029427;28;20573;-39
2021/04/06 06:31:54;;;;;;;8.93;2.20;;;7.00;47.50;;;;;;5027475;28;20190;-39
2021/04/06 06:34:37;;;;;;;4.07;2.23;;;6.90;47.10;;;;;;5028357;28;20501;-39
2021/04/06 06:37:16;;;;;;;4.80;2.00;;;6.90;47.70;;;;;;5029298;28;21604;-39
2021/04/06 06:40:03;;;;;;;2.90;2.10;;;6.90;48.00;;;;;;5030934;28;20455;-39
2021/04/06 06:42:38;;;;;;;9.70;2.70;;;7.20;47.90;;;;;;5024908;28;20444;-39
2021/04/06 06:45:21;;;;;;;3.37;2.23;;;7.30;47.40;;;;;;5024289;28;20792;-39
2021/04/06 06:47:56;;;;;;;4.10;2.77;;;7.50;47.40;;;;;;5021898;28;21021;-39
2021/04/06 06:50:24;;;;;;;6.17;2.67;;;7.70;48.00;;;;;;5024491;28;20515;-40
2021/04/06 06:52:57;;;;;;;4.03;2.37;;;8.00;47.30;;;;;;5024365;28;20462;-40
2021/04/06 06:55:25;;;;;;;7.23;2.70;;;8.10;46.20;;;;;;5026324;28;21059;-40
2021/04/06 06:58:04;;;;;;;3.93;2.20;;;8.20;45.70;;;;;;5025425;28;20951;-40
2021/04/06 07:00:30;;;;;;;6.00;3.13;;;8.20;45.70;;;;;;5029355;28;20537;-40
2021/04/06 07:02:56;;;;;;;5.30;1.97;;;8.00;45.20;;;;;;5031118;28;20432;-40
2021/04/06 07:05:24;;;;;;;4.13;2.10;;;8.00;45.50;;;;;;5027042;28;20525;-40
2021/04/06 07:07:51;;;;;;;3.27;1.93;;;7.70;45.10;;;;;;5031373;28;20208;-40
2021/04/06 07:10:19;;;;;;;3.53;2.13;;;7.50;46.70;;;;;;5030280;28;20848;-40
2021/04/06 07:12:46;;;;;;;8.27;2.93;;;7.70;47.10;;;;;;5026288;28;20527;-41
2021/04/06 07:15:15;;;;;;;4.53;2.10;;;7.70;47.00;;;;;;5029440;28;20901;-40
2021/04/06 07:17:44;;;;;;;3.90;2.00;;;7.70;47.10;;;;;;5029443;28;20448;-40
2021/04/06 07:20:16;;;;;;;3.97;2.37;;;7.50;47.30;;;;;;5021736;28;20599;-40
2021/04/06 07:22:44;;;;;;;5.10;1.90;;;7.20;47.60;;;;;;5024260;28;21066;-40
2021/04/06 07:25:11;;;;;;;6.00;2.43;;;7.00;48.20;;;;;;5030327;28;20436;-40
2021/04/06 07:27:37;;;;;;;4.70;2.13;;;6.90;48.40;;;;;;5029104;28;20522;-40
2021/04/06 07:30:04;;;;;;;5.37;2.30;;;6.70;48.60;;;;;;5030016;28;20474;-40
2021/04/06 07:32:31;;;;;;;3.50;2.50;;;6.50;49.10;;;;;;5019192;28;20928;-40
2021/04/06 07:34:57;;;;;;;3.23;2.00;;;6.70;49.40;;;;;;5016492;28;20480;-40
2021/04/06 07:37:22;;;;;;;5.10;2.30;;;6.60;49.10;;;;;;5023669;28;21187;-40
2021/04/06 07:39:49;;;;;;;2.53;2.03;;;6.30;49.30;;;;;;5024893;28;20267;-40
2021/04/06 07:42:15;;;;;;;7.57;2.80;;;6.50;50.00;;;;;;5029438;28;20189;-40
2021/04/06 07:44:41;;;;;;;4.40;2.07;;;6.60;50.10;;;;;;5021495;28;20432;-39
2021/04/06 07:47:06;;;;;;;5.10;2.30;;;6.30;49.40;;;;;;5011471;28;20689;-39
2021/04/06 07:49:34;;;;;;;8.77;2.20;;;5.90;49.90;;;;;;5029173;28;20523;-40
2021/04/06 07:52:19;;;;;;;8.37;2.63;;;5.90;51.10;;;;;;5027933;28;20193;-40
2021/04/06 07:54:47;;;;;;;7.40;2.20;;;6.00;51.30;;;;;;5025325;28;20443;-40
2021/04/06 07:57:13;;;;;;;8.47;2.50;;;6.30;50.60;;;;;;5019716;28;20494;-40
2021/04/06 07:59:42;;;;;;;3.93;2.00;;;6.50;50.60;;;;;;5021251;28;20511;-40
2021/04/06 08:02:07;;;;;;;7.60;2.80;;;6.50;50.60;;;;;;5027593;28;20436;-39
2021/04/06 08:04:45;;;;;;;3.30;2.00;;;6.40;50.30;;;;;;5020934;28;20845;-40
2021/04/06 08:07:20;;;;;;;4.73;1.93;;;6.50;50.70;;;;;;5024020;28;20246;-41
2021/04/06 08:09:49;;;;;;;3.43;1.80;;;6.50;50.80;;;;;;5023713;28;20596;-41
2021/04/06 08:12:33;;;;;;;6.50;2.50;;;6.50;50.80;;;;;;5021768;28;20435;-41
2021/04/06 08:15:04;;;;;;;2.40;1.60;;;6.60;50.40;;;;;;5027564;28;21094;-41
2021/04/06 08:17:29;;;;;;;4.03;2.17;;;6.80;50.50;;;;;;5027467;28;20458;-41
2021/04/06 08:20:08;;;;;;;3.03;2.07;;;6.90;50.40;;;;;;5024061;28;21228;-41
2021/04/06 08:22:43;;;;;;;9.30;2.43;;;6.60;50.10;;;;;;5022463;28;20232;-41
2021/04/06 08:25:24;;;;;;;3.73;2.00;;;6.60;50.50;;;;;;5028082;28;20440;-42
2021/04/06 08:28:04;;;;;;;6.50;2.20;;;6.50;50.80;;;;;;5024090;28;20783;-41
2021/04/06 08:30:35;;;;;;;10.43;2.70;;;6.30;50.80;;;;;;5023572;28;20467;-41
2021/04/06 08:33:01;;;;;;;8.57;2.00;;;6.40;51.60;;;;;;5025094;28;20463;-40
2021/04/06 08:40:48;;;;;;;7.87;2.67;;;6.80;50.60;;;;;;5026905;28;20498;-40
2021/04/06 08:43:17;;;;;;;3.70;1.90;;;6.80;49.90;;;;;;5026551;28;20428;-40
2021/04/06 08:46:06;;;;;;;5.30;2.40;;;7.00;50.20;;;;;;5024929;28;20272;-40
2021/04/06 08:48:43;;;;;;;7.07;2.50;;;6.90;50.10;;;;;;5025954;28;20932;-40
2021/04/06 08:51:28;;;;;;;5.73;2.77;;;7.00;50.20;;;;;;5021908;28;20440;-40
2021/04/06 08:53:55;;;;;;;8.63;2.60;;;7.10;49.80;;;;;;5023850;28;20527;-41
2021/04/06 08:56:27;;;;;;;7.40;2.40;;;7.00;49.90;;;;;;5024927;28;20439;-40
2021/04/06 08:59:22;;;;;;;4.67;1.70;;;7.00;50.00;;;;;;5018703;28;20468;-40
2021/04/06 09:01:57;;;;;;;7.00;2.00;;;7.00;50.00;;;;;;5010844;28;20888;-40
2021/04/06 09:04:36;;;;;;;4.20;2.30;;;7.10;50.00;;;;;;5025138;28;20471;-40
2021/04/06 09:07:14;;;;;;;9.63;2.70;;;7.20;50.10;;;;;;5017029;28;20440;-40
2021/04/06 09:09:40;;;;;;;3.20;2.10;;;6.90;50.30;;;;;;5016816;28;20808;-40
2021/04/06 09:12:06;;;;;;;4.27;2.87;;;6.90;51.20;;;;;;5025495;28;20447;-41
2021/04/06 09:14:32;;;;;;;5.40;2.20;;;7.00;51.50;;;;;;5026439;28;20197;-40
2021/04/06 09:16:58;;;;;;;9.63;2.43;;;7.10;51.20;;;;;;5026600;28;20201;-40
2021/04/06 09:19:25;;;;;;;4.33;2.00;;;7.10;50.70;;;;;;5023800;28;20471;-40
2021/04/06 09:21:56;;;;;;;4.77;2.43;;;6.90;50.70;;;;;;5023569;28;20557;-40
2021/04/06 09:24:24;;;;;;;4.53;2.50;;;6.80;50.40;;;;;;5018454;28;20448;-40
2021/04/06 09:26:52;;;;;;;3.57;1.80;;;6.80;50.40;;;;;;5028173;28;20472;-40
2021/04/06 09:29:24;;;;;;;8.37;2.97;;;6.60;50.70;;;;;;5031062;28;20452;-40
2021/04/06 09:31:54;;;;;;;4.60;2.27;;;6.30;50.50;;;;;;5022495;28;20436;-40
2021/04/06 09:34:25;;;;;;;7.47;2.67;;;6.60;51.70;;;;;;5022887;28;20448;-40
2021/04/06 09:36:55;;;;;;;4.20;1.63;;;6.70;51.60;;;;;;5015181;28;20485;-40
2021/04/06 09:39:22;;;;;;;2.47;1.83;;;6.90;51.30;;;;;;5030257;28;20436;-40
2021/04/06 09:41:47;;;;;;;2.77;1.43;;;7.00;51.00;;;;;;5025986;28;21061;-40
2021/04/06 09:44:18;;;;;;;4.53;2.73;;;7.00;51.40;;;;;;5027610;28;20432;-41
2021/04/06 09:46:47;;;;;;;4.40;2.57;;;7.20;51.40;;;;;;5028075;28;20231;-41
2021/04/06 09:49:14;;;;;;;6.37;2.57;;;7.40;50.70;;;;;;5022593;28;20471;-40
2021/04/06 09:51:45;;;;;;;5.43;2.23;;;7.50;50.70;;;;;;5022474;28;21004;-40
2021/04/06 09:54:12;;;;;;;3.90;2.60;;;7.60;50.40;;;;;;5028980;28;20420;-41
2021/04/06 09:56:39;;;;;;;3.97;2.70;;;7.30;49.20;;;;;;5028189;28;20432;-41
2021/04/06 09:59:06;;;;;;;4.90;2.10;;;7.40;50.00;;;;;;5029875;28;20463;-40
2021/04/06 10:01:32;;;;;;;5.73;2.00;;;7.70;49.60;;;;;;5029627;28;20498;-41
2021/04/06 10:04:01;;;;;;;6.43;1.70;;;7.70;49.20;;;;;;5026567;28;20437;-40
2021/04/06 10:06:39;;;;;;;4.97;1.70;;;7.80;49.00;;;;;;5031005;28;20511;-40
2021/04/06 10:09:21;;;;;;;5.47;2.50;;;7.90;49.50;;;;;;5023912;28;20930;-40
2021/04/06 10:11:48;;;;;;;3.07;1.60;;;7.70;48.60;;;;;;5016931;28;20444;-40
2021/04/06 10:14:14;;;;;;;5.63;2.03;;;7.60;49.10;;;;;;5031845;28;20493;-41
2021/04/06 10:16:42;;;;;;;2.10;1.60;;;7.60;48.70;;;;;;5026390;28;20440;-41
2021/04/06 10:19:19;;;;;;;3.50;1.90;;;7.40;48.50;;;;;;5027516;28;20530;-41
2021/04/06 10:22:02;;;;;;;3.37;2.03;;;7.50;49.00;;;;;;5029887;28;20486;-41
2021/04/06 10:24:29;;;;;;;4.50;2.03;;;7.60;48.40;;;;;;5026883;28;20483;-40
2021/04/06 10:27:08;;;;;;;4.80;2.20;;;7.80;48.80;;;;;;5029858;28;20446;-41
2021/04/06 10:29:35;;;;;;;6.90;2.27;;;7.80;48.70;;;;;;5028296;28;20436;-41
2021/04/06 10:32:02;;;;;;;4.40;2.57;;;7.90;48.90;;;;;;5027163;28;20545;-41
2021/04/06 10:34:29;;;;;;;3.27;1.73;;;8.20;48.20;;;;;;5027997;28;20471;-41
2021/04/06 10:37:04;;;;;;;3.20;1.97;;;8.10;47.40;;;;;;5024321;28;20491;-41
2021/04/06 10:39:37;;;;;;;3.30;1.67;;;8.10;47.40;;;;;;5019330;28;20462;-41
2021/04/06 10:42:05;;;;;;;2.00;1.50;;;7.90;47.10;;;;;;5021302;28;20462;-41
2021/04/06 10:44:31;;;;;;;3.10;1.63;;;7.70;46.50;;;;;;5029693;28;20445;-41
2021/04/06 10:46:57;;;;;;;8.20;1.70;;;7.90;46.80;;;;;;5027595;28;20440;-40
2021/04/06 10:49:23;;;;;;;3.80;2.00;;;8.30;47.90;;;;;;5028463;28;20436;-41
2021/04/06 10:51:52;;;;;;;7.10;2.30;;;8.60;47.40;;;;;;5023941;28;20432;-41
2021/04/06 10:54:19;;;;;;;3.47;2.10;;;8.40;45.70;;;;;;5026472;28;20446;-41
2021/04/06 10:56:51;;;;;;;3.57;1.87;;;8.40;46.50;;;;;;5019945;28;20804;-41
2021/04/06 10:59:32;;;;;;;6.17;2.23;;;8.70;47.20;;;;;;5029797;28;20455;-41
2021/04/06 11:01:58;;;;;;;3.50;2.27;;;8.70;45.70;;;;;;5027414;28;20474;-41
2021/04/06 11:04:26;;;;;;;8.27;3.00;;;8.50;46.10;;;;;;5029578;28;20440;-41
2021/04/06 11:07:03;;;;;;;4.80;1.70;;;8.60;45.20;;;;;;5023984;28;20455;-41
2021/04/06 11:09:44;;;;;;;1.90;1.50;;;8.90;45.60;;;;;;5029825;28;20973;-42
2021/04/06 11:12:11;;;;;;;2.63;0.90;;;9.30;46.00;;;;;;5018731;28;20444;-41
2021/04/06 11:14:39;;;;;;;4.90;1.70;;;9.50;43.30;;;;;;5026538;28;20891;-42
2021/04/06 11:17:06;;;;;;;3.13;1.50;;;9.70;43.00;;;;;;5029318;28;20443;-42
2021/04/06 11:19:35;;;;;;;6.27;1.50;;;9.70;43.00;;;;;;5027963;28;20495;-42
2021/04/06 11:22:04;;;;;;;5.90;2.20;;;9.30;41.10;;;;;;5022825;28;20828;-43
2021/04/06 11:24:31;;;;;;;3.63;1.83;;;9.10;41.20;;;;;;5022438;28;20866;-42
2021/04/06 11:26:57;;;;;;;5.40;1.43;;;9.30;42.30;;;;;;5027194;28;20472;-42
2021/04/06 11:29:26;;;;;;;12.70;2.30;;;9.20;40.90;;;;;;5027039;28;20471;-42
2021/04/06 11:31:57;;;;;;;4.23;1.70;;;9.10;41.70;;;;;;5016512;28;20478;-42
2021/04/06 11:34:24;;;;;;;2.70;1.93;;;9.50;42.50;;;;;;5023970;28;20435;-42
2021/04/06 11:36:50;;;;;;;2.57;1.37;;;9.60;41.20;;;;;;5020379;28;20503;-42
2021/04/06 11:39:19;;;;;;;3.83;1.63;;;9.30;40.20;;;;;;5025477;28;20513;-42
2021/04/06 11:41:48;;;;;;;1.83;1.30;;;9.40;40.00;;;;;;5029446;28;20692;-42
2021/04/06 11:44:15;;;;;;;4.20;2.27;;;9.30;40.50;;;;;;5020850;28;20527;-42
2021/04/06 11:46:41;;;;;;;4.43;1.70;;;9.80;41.50;;;;;;5020332;28;20432;-42
2021/04/06 11:49:09;;;;;;;2.70;1.70;;;9.90;39.70;;;;;;5023313;28;20436;-43
2021/04/06 11:51:36;;;;;;;2.80;1.50;;;9.60;37.80;;;;;;5023734;28;20440;-42
2021/04/06 11:54:02;;;;;;;2.47;1.30;;;9.60;38.20;;;;;;5021458;28;20463;-42
2021/04/06 11:56:28;;;;;;;5.17;1.97;;;9.50;38.00;;;;;;5024333;28;20444;-42
2021/04/06 11:58:53;;;;;;;3.90;2.07;;;9.50;38.90;;;;;;5021207;28;20941;-41
2021/04/06 12:01:19;;;;;;;2.30;1.30;;;9.60;38.70;;;;;;5022601;28;20267;-42
2021/04/06 12:03:44;;;;;;;2.77;1.37;;;9.40;38.10;;;;;;5029931;28;20197;-41
2021/04/06 12:06:10;;;;;;;2.97;1.80;;;9.40;38.80;;;;;;5028329;28;20304;-41
2021/04/06 12:08:36;;;;;;;5.33;1.87;;;9.40;38.80;;;;;;5030944;28;20193;-41
2021/04/06 12:11:02;;;;;;;3.30;1.57;;;9.30;39.30;;;;;;5030028;28;20275;-41
2021/04/06 12:13:29;;;;;;;3.87;1.70;;;8.90;39.40;;;;;;5033430;28;20273;-41
2021/04/06 12:15:54;;;;;;;3.13;1.40;;;9.20;39.90;;;;;;5026821;28;20447;-42
2021/04/06 12:18:20;;;;;;;4.90;1.80;;;9.20;38.50;;;;;;5028815;28;20432;-42
2021/04/06 12:20:46;;;;;;;3.00;1.83;;;9.20;38.50;;;;;;5029564;28;20239;-42
2021/04/06 12:23:12;;;;;;;4.20;2.43;;;9.30;38.40;;;;;;5031982;28;20300;-41
2021/04/06 12:25:37;;;;;;;6.63;1.67;;;9.30;38.30;;;;;;5021466;28;20602;-41
2021/04/06 12:28:03;;;;;;;2.53;1.60;;;9.50;38.70;;;;;;5026697;28;20625;-42
2021/04/06 12:30:29;;;;;;;3.63;1.90;;;9.50;37.20;;;;;;5029384;28;20193;-42
2021/04/06 12:32:55;;;;;;;3.50;1.70;;;9.40;37.00;;;;;;5020758;28;20205;-42
2021/04/06 12:35:21;;;;;;;2.97;1.40;;;9.20;37.30;;;;;;5022491;28;20489;-41
2021/04/06 12:37:47;;;;;;;2.70;1.20;;;9.40;37.80;;;;;;5023009;28;20958;-42
2021/04/06 12:40:13;;;;;;;2.30;1.40;;;9.90;38.50;;;;;;5031102;28;20216;-42
2021/04/06 12:42:39;;;;;;;1.70;1.33;;;10.10;36.70;;;;;;5028693;28;20993;-42
2021/04/06 12:45:08;;;;;;;4.23;2.00;;;10.40;36.10;;;;;;5025932;28;20451;-42
2021/04/06 12:47:34;;;;;;;3.23;1.97;;;10.60;36.10;;;;;;5027403;28;20964;-42
2021/04/06 12:50:01;;;;;;;2.70;1.30;;;10.90;35.90;;;;;;5027866;28;20467;-42
2021/04/06 12:52:26;;;;;;;2.63;1.60;;;10.50;34.50;;;;;;5025578;28;20424;-41
2021/04/06 12:54:52;;;;;;;2.43;1.63;;;10.40;34.50;;;;;;5027857;28;20444;-42
2021/04/06 12:57:17;;;;;;;3.23;1.73;;;10.40;34.60;;;;;;5020967;28;20200;-42
2021/04/06 12:59:43;;;;;;;4.23;1.37;;;10.40;34.20;;;;;;5024930;28;20193;-40
2021/04/06 13:02:09;;;;;;;7.60;1.90;;;10.20;33.70;;;;;;5026259;28;20280;-41
2021/04/06 13:04:35;;;;;;;2.60;1.57;;;10.10;33.90;;;;;;5031327;28;20626;-41
2021/04/06 13:07:02;;;;;;;3.07;1.80;;;9.90;35.00;;;;;;5018977;28;20559;-41
2021/04/06 13:09:27;;;;;;;3.43;1.77;;;10.10;35.00;;;;;;5024641;28;20296;-41
2021/04/06 13:11:53;;;;;;;3.93;1.47;;;10.10;34.40;;;;;;5029353;28;20520;-42
2021/04/06 13:14:18;;;;;;;6.57;2.03;;;10.20;34.00;;;;;;5031200;28;20213;-41